sensor_id;sensor_type;location;lat;lon;timestamp;P1;durP1;ratioP1;P2;durP2;ratioP2
18711;SDS011;9485;49.386;8.674;2023-06-04T00:03:28;2.80;;;1.20;;
18711;SDS011;9485;49.386;8.674;2023-06-04T00:08:51;3.38;;;1.17;;
18711;SDS011;9485;49.386;8.674;2023-06-04T00:14:13;1.60;;;0.95;;
18711;SDS011;9485;49.386;8.674;2023-06-04T00:19:35;1.65;;;0.90;;
18711;SDS011;9485;49.386;8.674;2023-06-04T00:24:57;1.30;;;1.00;;
18711;SDS011;9485;49.386;8.674;2023-06-04T00:30:19;2.38;;;1.00;;
18711;SDS011;9485;49.386;8.674;2023-06-04T00:35:40;1.10;;;0.95;;
18711;SDS011;9485;49.386;8.674;2023-06-04T00:41:01;1.25;;;1.10;;
18711;SDS011;9485;49.386;8.674;2023-06-04T00:46:24;1.15;;;1.00;;
18711;SDS011;9485;49.386;8.674;2023-06-04T00:51:48;1.20;;;1.10;;
18711;SDS011;9485;49.386;8.674;2023-06-04T00:57:10;2.58;;;1.10;;
18711;SDS011;9485;49.386;8.674;2023-06-04T01:02:31;0.80;;;0.80;;
18711;SDS011;9485;49.386;8.674;2023-06-04T01:07:55;1.02;;;0.90;;
18711;SDS011;9485;49.386;8.674;2023-06-04T01:13:17;1.60;;;1.10;;
18711;SDS011;9485;49.386;8.674;2023-06-04T01:18:39;1.70;;;1.00;;
18711;SDS011;9485;49.386;8.674;2023-06-04T01:24:03;2.10;;;1.00;;
18711;SDS011;9485;49.386;8.674;2023-06-04T01:29:27;2.95;;;1.10;;
18711;SDS011;9485;49.386;8.674;2023-06-04T01:34:50;1.92;;;1.45;;
18711;SDS011;9485;49.386;8.674;2023-06-04T01:40:11;5.90;;;1.08;;
18711;SDS011;9485;49.386;8.674;2023-06-04T01:45:33;3.28;;;1.20;;
18711;SDS011;9485;49.386;8.674;2023-06-04T01:50:55;1.33;;;1.00;;
18711;SDS011;9485;49.386;8.674;2023-06-04T01:56:15;2.00;;;1.10;;
18711;SDS011;9485;49.386;8.674;2023-06-04T02:01:36;2.40;;;1.42;;
18711;SDS011;9485;49.386;8.674;2023-06-04T02:06:58;1.42;;;1.00;;
18711;SDS011;9485;49.386;8.674;2023-06-04T02:12:19;0.90;;;0.90;;
18711;SDS011;9485;49.386;8.674;2023-06-04T02:17:40;3.15;;;1.30;;
18711;SDS011;9485;49.386;8.674;2023-06-04T02:23:02;1.17;;;0.98;;
18711;SDS011;9485;49.386;8.674;2023-06-04T02:28:23;1.77;;;1.30;;
18711;SDS011;9485;49.386;8.674;2023-06-04T02:33:43;1.65;;;0.80;;
18711;SDS011;9485;49.386;8.674;2023-06-04T02:39:06;2.00;;;0.98;;
18711;SDS011;9485;49.386;8.674;2023-06-04T02:44:26;4.18;;;0.93;;
18711;SDS011;9485;49.386;8.674;2023-06-04T02:49:48;1.13;;;1.02;;
18711;SDS011;9485;49.386;8.674;2023-06-04T02:55:10;1.38;;;1.17;;
18711;SDS011;9485;49.386;8.674;2023-06-04T03:00:31;1.55;;;1.00;;
18711;SDS011;9485;49.386;8.674;2023-06-04T03:05:52;1.33;;;1.00;;
18711;SDS011;9485;49.386;8.674;2023-06-04T03:11:14;1.25;;;0.98;;
18711;SDS011;9485;49.386;8.674;2023-06-04T03:16:35;1.25;;;0.90;;
18711;SDS011;9485;49.386;8.674;2023-06-04T03:21:58;1.70;;;1.10;;
18711;SDS011;9485;49.386;8.674;2023-06-04T03:27:21;1.10;;;0.90;;
18711;SDS011;9485;49.386;8.674;2023-06-04T03:32:42;1.13;;;0.93;;
18711;SDS011;9485;49.386;8.674;2023-06-04T03:38:04;1.90;;;1.00;;
18711;SDS011;9485;49.386;8.674;2023-06-04T03:43:27;1.70;;;1.00;;
18711;SDS011;9485;49.386;8.674;2023-06-04T03:48:52;1.10;;;0.97;;
18711;SDS011;9485;49.386;8.674;2023-06-04T03:54:13;0.83;;;0.80;;
18711;SDS011;9485;49.386;8.674;2023-06-04T03:59:38;1.90;;;1.00;;
18711;SDS011;9485;49.386;8.674;2023-06-04T04:04:59;1.03;;;0.80;;
18711;SDS011;9485;49.386;8.674;2023-06-04T04:10:20;0.80;;;0.80;;
18711;SDS011;9485;49.386;8.674;2023-06-04T04:15:43;2.47;;;1.00;;
18711;SDS011;9485;49.386;8.674;2023-06-04T04:21:05;1.00;;;0.90;;
18711;SDS011;9485;49.386;8.674;2023-06-04T04:26:26;1.00;;;0.90;;
18711;SDS011;9485;49.386;8.674;2023-06-04T04:31:49;2.87;;;1.00;;
18711;SDS011;9485;49.386;8.674;2023-06-04T04:37:13;2.20;;;1.00;;
18711;SDS011;9485;49.386;8.674;2023-06-04T04:42:35;3.83;;;1.07;;
18711;SDS011;9485;49.386;8.674;2023-06-04T04:47:59;1.80;;;1.07;;
18711;SDS011;9485;49.386;8.674;2023-06-04T04:53:20;1.10;;;0.90;;
18711;SDS011;9485;49.386;8.674;2023-06-04T04:58:41;1.87;;;0.97;;
18711;SDS011;9485;49.386;8.674;2023-06-04T05:04:03;1.20;;;1.00;;
18711;SDS011;9485;49.386;8.674;2023-06-04T05:09:24;3.10;;;1.00;;
18711;SDS011;9485;49.386;8.674;2023-06-04T05:14:45;1.97;;;1.00;;
18711;SDS011;9485;49.386;8.674;2023-06-04T05:20:08;2.03;;;1.10;;
18711;SDS011;9485;49.386;8.674;2023-06-04T05:25:34;1.10;;;0.97;;
18711;SDS011;9485;49.386;8.674;2023-06-04T05:30:57;1.57;;;1.00;;
18711;SDS011;9485;49.386;8.674;2023-06-04T05:36:22;1.20;;;1.10;;
18711;SDS011;9485;49.386;8.674;2023-06-04T05:41:49;1.27;;;1.10;;
18711;SDS011;9485;49.386;8.674;2023-06-04T05:47:11;1.27;;;1.00;;
18711;SDS011;9485;49.386;8.674;2023-06-04T05:52:33;0.87;;;0.87;;
18711;SDS011;9485;49.386;8.674;2023-06-04T05:57:57;1.30;;;1.20;;
18711;SDS011;9485;49.386;8.674;2023-06-04T06:03:19;1.38;;;1.00;;
18711;SDS011;9485;49.386;8.674;2023-06-04T06:08:43;1.38;;;0.90;;
18711;SDS011;9485;49.386;8.674;2023-06-04T06:14:04;3.28;;;1.13;;
18711;SDS011;9485;49.386;8.674;2023-06-04T06:19:25;3.15;;;1.50;;
18711;SDS011;9485;49.386;8.674;2023-06-04T06:24:47;1.17;;;0.95;;
18711;SDS011;9485;49.386;8.674;2023-06-04T06:30:09;1.52;;;1.20;;
18711;SDS011;9485;49.386;8.674;2023-06-04T06:35:31;1.60;;;1.20;;
18711;SDS011;9485;49.386;8.674;2023-06-04T06:40:54;1.23;;;1.13;;
18711;SDS011;9485;49.386;8.674;2023-06-04T06:46:14;1.30;;;1.02;;
18711;SDS011;9485;49.386;8.674;2023-06-04T06:51:35;1.45;;;0.95;;
18711;SDS011;9485;49.386;8.674;2023-06-04T06:56:57;2.35;;;1.10;;
18711;SDS011;9485;49.386;8.674;2023-06-04T07:02:17;1.42;;;1.20;;
18711;SDS011;9485;49.386;8.674;2023-06-04T07:07:38;2.50;;;1.08;;
18711;SDS011;9485;49.386;8.674;2023-06-04T07:13:00;1.15;;;0.98;;
18711;SDS011;9485;49.386;8.674;2023-06-04T07:18:21;1.17;;;1.08;;
18711;SDS011;9485;49.386;8.674;2023-06-04T07:23:42;1.58;;;1.23;;
18711;SDS011;9485;49.386;8.674;2023-06-04T07:29:05;1.00;;;0.90;;
18711;SDS011;9485;49.386;8.674;2023-06-04T07:34:26;1.83;;;0.88;;
18711;SDS011;9485;49.386;8.674;2023-06-04T07:39:47;1.13;;;1.02;;
18711;SDS011;9485;49.386;8.674;2023-06-04T07:45:09;1.38;;;0.93;;
18711;SDS011;9485;49.386;8.674;2023-06-04T07:50:30;0.90;;;0.88;;
18711;SDS011;9485;49.386;8.674;2023-06-04T07:55:51;1.38;;;1.00;;
18711;SDS011;9485;49.386;8.674;2023-06-04T08:01:14;1.33;;;0.90;;
18711;SDS011;9485;49.386;8.674;2023-06-04T08:06:34;1.48;;;1.20;;
18711;SDS011;9485;49.386;8.674;2023-06-04T08:11:55;2.13;;;1.00;;
18711;SDS011;9485;49.386;8.674;2023-06-04T08:17:17;1.83;;;1.17;;
18711;SDS011;9485;49.386;8.674;2023-06-04T08:22:37;1.52;;;1.40;;
18711;SDS011;9485;49.386;8.674;2023-06-04T08:27:59;1.48;;;1.13;;
18711;SDS011;9485;49.386;8.674;2023-06-04T08:33:21;1.55;;;1.25;;
18711;SDS011;9485;49.386;8.674;2023-06-04T08:38:42;1.17;;;1.00;;
18711;SDS011;9485;49.386;8.674;2023-06-04T08:44:02;1.90;;;1.00;;
18711;SDS011;9485;49.386;8.674;2023-06-04T08:49:27;2.08;;;1.40;;
18711;SDS011;9485;49.386;8.674;2023-06-04T08:54:51;1.55;;;1.13;;
18711;SDS011;9485;49.386;8.674;2023-06-04T09:00:15;2.92;;;0.82;;
18711;SDS011;9485;49.386;8.674;2023-06-04T09:05:42;1.42;;;1.10;;
18711;SDS011;9485;49.386;8.674;2023-06-04T09:11:08;2.55;;;1.02;;
18711;SDS011;9485;49.386;8.674;2023-06-04T09:16:33;1.90;;;1.10;;
18711;SDS011;9485;49.386;8.674;2023-06-04T09:22:04;1.15;;;1.02;;
18711;SDS011;9485;49.386;8.674;2023-06-04T09:27:25;1.50;;;1.30;;
18711;SDS011;9485;49.386;8.674;2023-06-04T09:32:47;1.65;;;1.35;;
18711;SDS011;9485;49.386;8.674;2023-06-04T09:38:09;1.35;;;0.95;;
18711;SDS011;9485;49.386;8.674;2023-06-04T09:43:29;1.70;;;1.23;;
18711;SDS011;9485;49.386;8.674;2023-06-04T09:48:58;1.20;;;0.93;;
18711;SDS011;9485;49.386;8.674;2023-06-04T09:54:21;1.00;;;0.98;;
18711;SDS011;9485;49.386;8.674;2023-06-04T09:59:43;1.35;;;1.10;;
18711;SDS011;9485;49.386;8.674;2023-06-04T10:05:05;2.70;;;1.00;;
18711;SDS011;9485;49.386;8.674;2023-06-04T10:10:29;1.40;;;1.30;;
18711;SDS011;9485;49.386;8.674;2023-06-04T10:15:54;1.48;;;1.20;;
18711;SDS011;9485;49.386;8.674;2023-06-04T10:21:18;1.70;;;0.90;;
18711;SDS011;9485;49.386;8.674;2023-06-04T10:26:40;1.88;;;1.10;;
18711;SDS011;9485;49.386;8.674;2023-06-04T10:32:04;1.63;;;1.13;;
18711;SDS011;9485;49.386;8.674;2023-06-04T10:37:25;1.58;;;1.10;;
18711;SDS011;9485;49.386;8.674;2023-06-04T10:42:49;1.02;;;0.93;;
18711;SDS011;9485;49.386;8.674;2023-06-04T10:48:12;1.63;;;1.05;;
18711;SDS011;9485;49.386;8.674;2023-06-04T10:53:36;3.08;;;1.08;;
18711;SDS011;9485;49.386;8.674;2023-06-04T10:58:58;2.65;;;1.63;;
18711;SDS011;9485;49.386;8.674;2023-06-04T11:04:20;1.23;;;1.13;;
18711;SDS011;9485;49.386;8.674;2023-06-04T11:09:47;2.00;;;1.30;;
18711;SDS011;9485;49.386;8.674;2023-06-04T11:15:11;1.13;;;1.02;;
18711;SDS011;9485;49.386;8.674;2023-06-04T11:20:33;1.77;;;1.17;;
18711;SDS011;9485;49.386;8.674;2023-06-04T11:25:54;1.38;;;1.27;;
18711;SDS011;9485;49.386;8.674;2023-06-04T11:31:18;1.90;;;1.30;;
18711;SDS011;9485;49.386;8.674;2023-06-04T11:36:40;2.20;;;1.10;;
18711;SDS011;9485;49.386;8.674;2023-06-04T11:42:03;1.33;;;1.23;;
18711;SDS011;9485;49.386;8.674;2023-06-04T11:47:27;1.20;;;1.10;;
18711;SDS011;9485;49.386;8.674;2023-06-04T11:52:51;2.22;;;1.40;;
18711;SDS011;9485;49.386;8.674;2023-06-04T11:58:13;1.67;;;1.10;;
18711;SDS011;9485;49.386;8.674;2023-06-04T12:03:35;3.20;;;1.40;;
18711;SDS011;9485;49.386;8.674;2023-06-04T12:08:58;2.20;;;1.45;;
18711;SDS011;9485;49.386;8.674;2023-06-04T12:14:19;1.60;;;1.15;;
18711;SDS011;9485;49.386;8.674;2023-06-04T12:19:46;1.55;;;1.33;;
18711;SDS011;9485;49.386;8.674;2023-06-04T12:25:08;2.25;;;1.40;;
18711;SDS011;9485;49.386;8.674;2023-06-04T12:30:35;1.23;;;1.02;;
18711;SDS011;9485;49.386;8.674;2023-06-04T12:35:58;1.75;;;1.65;;
18711;SDS011;9485;49.386;8.674;2023-06-04T12:41:18;1.55;;;1.45;;
18711;SDS011;9485;49.386;8.674;2023-06-04T12:46:40;1.92;;;1.30;;
18711;SDS011;9485;49.386;8.674;2023-06-04T12:52:02;2.60;;;1.45;;
18711;SDS011;9485;49.386;8.674;2023-06-04T12:57:24;1.30;;;1.20;;
18711;SDS011;9485;49.386;8.674;2023-06-04T13:02:45;3.17;;;1.73;;
18711;SDS011;9485;49.386;8.674;2023-06-04T13:08:07;1.95;;;1.48;;
18711;SDS011;9485;49.386;8.674;2023-06-04T13:13:28;1.58;;;1.10;;
18711;SDS011;9485;49.386;8.674;2023-06-04T13:18:49;1.65;;;1.50;;
18711;SDS011;9485;49.386;8.674;2023-06-04T13:24:11;1.20;;;1.10;;
18711;SDS011;9485;49.386;8.674;2023-06-04T13:29:32;1.95;;;1.50;;
18711;SDS011;9485;49.386;8.674;2023-06-04T13:34:53;6.15;;;2.88;;
18711;SDS011;9485;49.386;8.674;2023-06-04T13:40:15;1.58;;;1.40;;
18711;SDS011;9485;49.386;8.674;2023-06-04T13:45:36;7.68;;;2.20;;
18711;SDS011;9485;49.386;8.674;2023-06-04T13:50:59;3.33;;;1.40;;
18711;SDS011;9485;49.386;8.674;2023-06-04T13:56:21;1.23;;;1.10;;
18711;SDS011;9485;49.386;8.674;2023-06-04T14:01:42;1.42;;;1.17;;
18711;SDS011;9485;49.386;8.674;2023-06-04T14:07:03;1.83;;;1.02;;
18711;SDS011;9485;49.386;8.674;2023-06-04T14:12:26;1.35;;;1.00;;
18711;SDS011;9485;49.386;8.674;2023-06-04T14:17:47;1.50;;;1.25;;
18711;SDS011;9485;49.386;8.674;2023-06-04T14:23:08;1.27;;;1.17;;
18711;SDS011;9485;49.386;8.674;2023-06-04T14:28:32;1.45;;;1.30;;
18711;SDS011;9485;49.386;8.674;2023-06-04T14:33:53;1.23;;;1.05;;
18711;SDS011;9485;49.386;8.674;2023-06-04T14:39:15;1.95;;;1.27;;
18711;SDS011;9485;49.386;8.674;2023-06-04T14:44:37;1.42;;;1.10;;
18711;SDS011;9485;49.386;8.674;2023-06-04T14:49:58;2.20;;;1.30;;
18711;SDS011;9485;49.386;8.674;2023-06-04T14:55:19;1.83;;;1.02;;
18711;SDS011;9485;49.386;8.674;2023-06-04T15:00:45;1.30;;;1.10;;
18711;SDS011;9485;49.386;8.674;2023-06-04T15:06:06;1.70;;;1.30;;
18711;SDS011;9485;49.386;8.674;2023-06-04T15:11:27;2.65;;;1.13;;
18711;SDS011;9485;49.386;8.674;2023-06-04T15:16:49;1.52;;;1.10;;
18711;SDS011;9485;49.386;8.674;2023-06-04T15:22:10;1.65;;;1.40;;
18711;SDS011;9485;49.386;8.674;2023-06-04T15:27:31;2.17;;;1.20;;
18711;SDS011;9485;49.386;8.674;2023-06-04T15:32:53;1.40;;;1.30;;
18711;SDS011;9485;49.386;8.674;2023-06-04T15:38:19;2.25;;;1.30;;
18711;SDS011;9485;49.386;8.674;2023-06-04T15:43:40;2.92;;;1.40;;
18711;SDS011;9485;49.386;8.674;2023-06-04T15:49:04;3.28;;;1.27;;
18711;SDS011;9485;49.386;8.674;2023-06-04T15:54:26;1.50;;;1.30;;
18711;SDS011;9485;49.386;8.674;2023-06-04T15:59:47;3.25;;;1.17;;
18711;SDS011;9485;49.386;8.674;2023-06-04T16:05:09;1.40;;;1.30;;
18711;SDS011;9485;49.386;8.674;2023-06-04T16:10:30;1.55;;;1.42;;
18711;SDS011;9485;49.386;8.674;2023-06-04T16:15:52;1.92;;;1.38;;
18711;SDS011;9485;49.386;8.674;2023-06-04T16:21:14;1.10;;;1.00;;
18711;SDS011;9485;49.386;8.674;2023-06-04T16:26:35;1.80;;;1.23;;
18711;SDS011;9485;49.386;8.674;2023-06-04T16:31:56;1.25;;;1.13;;
18711;SDS011;9485;49.386;8.674;2023-06-04T16:37:18;2.22;;;1.50;;
18711;SDS011;9485;49.386;8.674;2023-06-04T16:42:39;1.85;;;1.50;;
18711;SDS011;9485;49.386;8.674;2023-06-04T16:48:00;1.60;;;1.33;;
18711;SDS011;9485;49.386;8.674;2023-06-04T16:53:23;2.15;;;1.30;;
18711;SDS011;9485;49.386;8.674;2023-06-04T16:58:44;1.92;;;1.20;;
18711;SDS011;9485;49.386;8.674;2023-06-04T17:04:05;1.92;;;1.50;;
18711;SDS011;9485;49.386;8.674;2023-06-04T17:09:27;1.95;;;1.42;;
18711;SDS011;9485;49.386;8.674;2023-06-04T17:14:48;1.60;;;1.20;;
18711;SDS011;9485;49.386;8.674;2023-06-04T17:20:10;1.90;;;1.30;;
18711;SDS011;9485;49.386;8.674;2023-06-04T17:25:33;1.95;;;1.20;;
18711;SDS011;9485;49.386;8.674;2023-06-04T17:30:54;1.52;;;1.10;;
18711;SDS011;9485;49.386;8.674;2023-06-04T17:36:14;1.50;;;1.40;;
18711;SDS011;9485;49.386;8.674;2023-06-04T17:41:36;1.98;;;1.40;;
18711;SDS011;9485;49.386;8.674;2023-06-04T17:46:57;1.60;;;1.40;;
18711;SDS011;9485;49.386;8.674;2023-06-04T17:52:22;1.83;;;1.30;;
18711;SDS011;9485;49.386;8.674;2023-06-04T17:57:44;2.00;;;1.25;;
18711;SDS011;9485;49.386;8.674;2023-06-04T18:03:05;1.60;;;1.30;;
18711;SDS011;9485;49.386;8.674;2023-06-04T18:08:27;3.22;;;1.50;;
18711;SDS011;9485;49.386;8.674;2023-06-04T18:13:50;2.08;;;1.17;;
18711;SDS011;9485;49.386;8.674;2023-06-04T18:19:10;1.73;;;1.45;;
18711;SDS011;9485;49.386;8.674;2023-06-04T18:24:34;1.73;;;1.45;;
18711;SDS011;9485;49.386;8.674;2023-06-04T18:29:57;2.72;;;1.63;;
18711;SDS011;9485;49.386;8.674;2023-06-04T18:35:17;1.30;;;1.20;;
18711;SDS011;9485;49.386;8.674;2023-06-04T18:40:38;3.05;;;1.23;;
18711;SDS011;9485;49.386;8.674;2023-06-04T18:46:00;1.83;;;1.33;;
18711;SDS011;9485;49.386;8.674;2023-06-04T18:51:20;2.53;;;1.50;;
18711;SDS011;9485;49.386;8.674;2023-06-04T18:56:41;1.70;;;1.30;;
18711;SDS011;9485;49.386;8.674;2023-06-04T19:02:04;1.90;;;1.45;;
18711;SDS011;9485;49.386;8.674;2023-06-04T19:07:32;2.63;;;1.27;;
18711;SDS011;9485;49.386;8.674;2023-06-04T19:12:53;1.30;;;1.20;;
18711;SDS011;9485;49.386;8.674;2023-06-04T19:18:15;2.55;;;1.40;;
18711;SDS011;9485;49.386;8.674;2023-06-04T19:23:36;3.00;;;1.63;;
18711;SDS011;9485;49.386;8.674;2023-06-04T19:28:56;3.95;;;1.75;;
18711;SDS011;9485;49.386;8.674;2023-06-04T19:34:18;2.88;;;1.77;;
18711;SDS011;9485;49.386;8.674;2023-06-04T19:39:39;2.13;;;1.90;;
18711;SDS011;9485;49.386;8.674;2023-06-04T19:44:59;3.55;;;2.53;;
18711;SDS011;9485;49.386;8.674;2023-06-04T19:50:21;2.15;;;1.55;;
18711;SDS011;9485;49.386;8.674;2023-06-04T19:55:41;1.52;;;1.42;;
18711;SDS011;9485;49.386;8.674;2023-06-04T20:01:02;1.83;;;1.30;;
18711;SDS011;9485;49.386;8.674;2023-06-04T20:06:25;1.48;;;1.25;;
18711;SDS011;9485;49.386;8.674;2023-06-04T20:11:46;2.97;;;1.50;;
18711;SDS011;9485;49.386;8.674;2023-06-04T20:17:07;2.28;;;1.77;;
18711;SDS011;9485;49.386;8.674;2023-06-04T20:22:29;2.13;;;1.92;;
18711;SDS011;9485;49.386;8.674;2023-06-04T20:27:51;1.73;;;1.63;;
18711;SDS011;9485;49.386;8.674;2023-06-04T20:33:12;1.88;;;1.70;;
18711;SDS011;9485;49.386;8.674;2023-06-04T20:38:34;3.05;;;1.70;;
18711;SDS011;9485;49.386;8.674;2023-06-04T20:43:54;1.95;;;1.75;;
18711;SDS011;9485;49.386;8.674;2023-06-04T20:49:15;2.17;;;2.00;;
18711;SDS011;9485;49.386;8.674;2023-06-04T20:54:37;2.42;;;2.08;;
18711;SDS011;9485;49.386;8.674;2023-06-04T20:59:57;2.30;;;2.10;;
18711;SDS011;9485;49.386;8.674;2023-06-04T21:05:18;2.65;;;2.20;;
18711;SDS011;9485;49.386;8.674;2023-06-04T21:10:40;2.30;;;2.08;;
18711;SDS011;9485;49.386;8.674;2023-06-04T21:16:01;2.53;;;2.33;;
18711;SDS011;9485;49.386;8.674;2023-06-04T21:21:21;2.60;;;2.20;;
18711;SDS011;9485;49.386;8.674;2023-06-04T21:26:43;2.60;;;2.25;;
18711;SDS011;9485;49.386;8.674;2023-06-04T21:32:04;2.08;;;1.98;;
18711;SDS011;9485;49.386;8.674;2023-06-04T21:37:25;3.90;;;2.35;;
18711;SDS011;9485;49.386;8.674;2023-06-04T21:42:47;2.30;;;2.03;;
18711;SDS011;9485;49.386;8.674;2023-06-04T21:48:08;2.42;;;2.20;;
18711;SDS011;9485;49.386;8.674;2023-06-04T21:53:29;2.20;;;1.95;;
18711;SDS011;9485;49.386;8.674;2023-06-04T21:58:51;2.05;;;1.77;;
18711;SDS011;9485;49.386;8.674;2023-06-04T22:04:12;3.50;;;1.77;;
18711;SDS011;9485;49.386;8.674;2023-06-04T22:09:33;1.90;;;1.70;;
18711;SDS011;9485;49.386;8.674;2023-06-04T22:14:55;2.30;;;1.77;;
18711;SDS011;9485;49.386;8.674;2023-06-04T22:20:15;2.58;;;1.73;;
18711;SDS011;9485;49.386;8.674;2023-06-04T22:25:36;2.78;;;1.70;;
18711;SDS011;9485;49.386;8.674;2023-06-04T22:30:58;3.63;;;1.45;;
18711;SDS011;9485;49.386;8.674;2023-06-04T22:36:18;2.95;;;1.70;;
18711;SDS011;9485;49.386;8.674;2023-06-04T22:41:39;2.35;;;1.50;;
18711;SDS011;9485;49.386;8.674;2023-06-04T22:47:01;1.50;;;1.40;;
18711;SDS011;9485;49.386;8.674;2023-06-04T22:52:21;1.60;;;1.20;;
18711;SDS011;9485;49.386;8.674;2023-06-04T22:57:44;3.85;;;1.20;;
18711;SDS011;9485;49.386;8.674;2023-06-04T23:03:06;1.85;;;1.50;;
18711;SDS011;9485;49.386;8.674;2023-06-04T23:08:28;1.50;;;1.20;;
18711;SDS011;9485;49.386;8.674;2023-06-04T23:13:49;2.58;;;1.50;;
18711;SDS011;9485;49.386;8.674;2023-06-04T23:19:10;2.13;;;1.35;;
18711;SDS011;9485;49.386;8.674;2023-06-04T23:24:31;1.35;;;1.23;;
18711;SDS011;9485;49.386;8.674;2023-06-04T23:29:52;1.38;;;1.20;;
18711;SDS011;9485;49.386;8.674;2023-06-04T23:35:13;3.28;;;1.35;;
18711;SDS011;9485;49.386;8.674;2023-06-04T23:40:34;1.70;;;1.40;;
18711;SDS011;9485;49.386;8.674;2023-06-04T23:45:55;1.67;;;1.20;;
18711;SDS011;9485;49.386;8.674;2023-06-04T23:51:17;1.38;;;1.25;;
18711;SDS011;9485;49.386;8.674;2023-06-04T23:56:37;2.25;;;1.00;;
